• Join FlightAware (Why Join?)
  • Login
  • US Flag 
08:53AM EST


 

Airport Tracker/Info


-or-


 

Live Flight TrackerFlight Track Log ✈ LYM1725 ✈ 04-May-2013 ✈ KLAR - KRIW

Flight Track Log - Related Links

Times and Time Zones

All times are in EDT time to prevent confusion due to time zone crossing. See the LYM1725 flight status page for this flight to view local times or setup timezone preferences in your user account.

Time Position Orientation Groundspeed Altitude Reporting Facility
EDT Latitude Longitude Course Direction KTS MPH feet Rate Location/Type
09:35AM 41.3622 -105.7531 312° West 163 188 10,500  Level Denver Center
09:36AM 41.4069 -105.8047 319° Northwest 189 217 12,500 1,860 Climbing Denver Center
09:37AM 41.4447 -105.8564 314° West 194 223 14,300 1,560 Climbing Denver Center
09:38AM 41.4797 -105.8944 321° Northwest 182 209 15,700 1,440 Climbing Denver Center
09:39AM 41.5200 -105.9464 316° Northwest 180 207 17,300 1,080 Climbing Denver Center
09:40AM 41.6883 -106.2574 312° West  Level FlightAware Approximate
09:40AM 41.5494 -105.9983 307° West 183 211 18,000  Level Denver Center
09:41AM 41.7319 -106.3227 312° West  Level FlightAware Approximate
09:41AM 41.5875 -106.0594 310° West 220 253 18,000  Level Denver Center
09:42AM 41.6261 -106.1467 301° West 243 280 18,000  Level Denver Center
09:43AM 41.6628 -106.2231 303° West 252 290 18,000  Level Denver Center
09:45AM 41.7125 -106.2872 316° Northwest 256 295 18,100  Climbing Denver Center
09:46AM 41.7775 -106.3575 321° Northwest 273 314 18,000  Descending Denver Center
09:47AM 41.8164 -106.4319 305° West 263 303 18,100  Climbing Denver Center
09:48AM 41.8597 -106.5150 305° West 259 298 18,100 -120 Level Denver Center
09:49AM 41.9042 -106.5892 309° West 262 302 17,900 -120 Descending Denver Center
09:50AM 41.9497 -106.6575 312° West 259 298 17,900  Level Denver Center
09:51AM 42.0022 -106.7408 310° West 261 300 18,000  Climbing Denver Center
09:52AM 42.0481 -106.8097 312° West 260 299 18,000  Level Denver Center
09:53AM 42.1006 -106.8903 311° West 259 298 18,100  Climbing Denver Center
09:54AM 42.1444 -106.9594 311° West 256 295 18,100 -60 Level Denver Center
09:55AM 42.1961 -107.0275 316° Northwest 263 303 18,000  Descending Denver Center
09:56AM 42.2478 -107.1106 310° West 263 303 18,100  Climbing Denver Center
09:57AM 42.2906 -107.1836 308° West 261 300 18,000 -60 Descending Denver Center
09:58AM 42.3308 -107.2611 305° West 263 303 18,000  Level Denver Center
09:59AM 42.3853 -107.3467 311° West 267 307 18,000  Level Denver Center
10:00AM 42.4317 -107.4175 312° West 265 305 18,000  Level Denver Center
10:01AM 42.4772 -107.4889 311° West 264 304 18,000  Level Salt Lake Center
10:02AM 42.5281 -107.5744 309° West 263 303 18,000 -120 Level Salt Lake Center
10:03AM 42.5733 -107.6450 311° West 261 300 17,800 -720 Descending Salt Lake Center
10:04AM 42.6203 -107.7233 309° West 274 315 16,600 -1,500 Descending Salt Lake Center
10:05AM 42.6753 -107.8206 308° West 287 330 14,800 -1,500 Descending Salt Lake Center
10:06AM 42.7269 -107.9058 310° West 300 345 13,600 -1,380 Descending Salt Lake Center
10:07AM 42.7808 -107.9853 313° West 300 345 12,000 -1,320 Descending Salt Lake Center
10:08AM 42.8450 -108.0867 311° West 311 358 10,900 -1,080 Descending Salt Lake Center
10:09AM 42.9003 -108.1661 314° West 308 354 9,900 -900 Descending Salt Lake Center
10:10AM 42.9553 -108.2481 313° West 301 346 9,100 -600 Descending Salt Lake Center
10:11AM 43.0008 -108.3094 315° West 272 313 8,800 -300 Descending Salt Lake Center